createdAt,value
2019-06-07T00:04:59.115Z,72.80
2019-06-07T00:10:03.669Z,73.10
2019-06-07T00:15:12.942Z,73.10
2019-06-07T00:20:23.471Z,73.20
2019-06-07T00:25:25.323Z,73.50
2019-06-07T00:30:48.463Z,73.80
2019-06-07T00:35:38.268Z,73.80
2019-06-07T00:40:44.665Z,73.90
2019-06-07T00:45:48.355Z,74.20
2019-06-07T00:50:57.091Z,74.30
2019-06-07T00:56:02.271Z,74.50
2019-06-07T01:01:12.471Z,74.70
2019-06-07T01:06:17.522Z,74.60
2019-06-07T01:11:35.309Z,74.70
2019-06-07T01:16:56.528Z,74.90
2019-06-07T01:21:44.464Z,75.00
2019-06-07T01:26:52.136Z,75.10
2019-06-07T01:32:05.519Z,75.30
2019-06-07T01:37:10.660Z,75.50
2019-06-07T01:42:14.376Z,75.80
2019-06-07T01:47:21.192Z,75.90
2019-06-07T01:52:27.460Z,76.10
2019-06-07T01:57:45.640Z,76.90
2019-06-07T02:02:39.632Z,76.20
2019-06-07T02:07:53.348Z,76.20
2019-06-07T02:12:57.070Z,76.30
2019-06-07T02:18:00.830Z,76.50
2019-06-07T02:23:06.232Z,76.80
2019-06-07T02:28:27.575Z,76.90
2019-06-07T02:33:24.191Z,77.20
2019-06-07T02:38:43.399Z,77.10
2019-06-07T02:43:55.693Z,76.90
2019-06-07T02:49:02.230Z,77.20
2019-06-07T02:54:13.622Z,77.00
2019-06-07T02:59:40.194Z,77.20
2019-06-07T03:04:28.568Z,77.20
2019-06-07T03:09:35.048Z,77.20
2019-06-07T03:14:55.606Z,77.30
2019-06-07T03:20:02.813Z,77.40
2019-06-07T03:25:07.696Z,77.50
2019-06-07T03:35:28.456Z,77.80
2019-06-07T03:40:31.691Z,77.60
2019-06-07T03:45:41.170Z,77.50
2019-06-07T03:51:04.460Z,77.60
2019-06-07T03:56:05.154Z,77.70
2019-06-07T04:01:13.971Z,77.80
2019-06-07T04:06:32.483Z,77.80
2019-06-07T04:11:35.773Z,78.00
2019-06-07T04:16:44.198Z,78.10
2019-06-07T04:21:45.422Z,78.20
2019-06-07T04:26:58.164Z,78.30
2019-06-07T04:32:04.426Z,78.40
2019-06-07T04:37:12.645Z,78.50
2019-06-07T04:42:19.725Z,78.70
2019-06-07T04:47:26.884Z,78.80
2019-06-07T04:52:33.475Z,78.80
2019-06-07T04:57:37.617Z,78.90
2019-06-07T05:02:45.017Z,79.00
2019-06-07T05:07:48.630Z,78.90
2019-06-07T05:13:02.531Z,79.10
2019-06-07T05:18:09.309Z,79.30
2019-06-07T05:24:00.189Z,79.50
2019-06-07T05:28:35.756Z,79.40
2019-06-07T05:33:45.362Z,79.30
2019-06-07T05:38:50.418Z,79.50
2019-06-07T05:49:46.963Z,79.90
2019-06-07T05:55:01.943Z,79.70
2019-06-07T06:00:08.235Z,79.80
2019-06-07T06:05:33.406Z,79.80
2019-06-07T06:10:26.348Z,80.00
2019-06-07T06:15:42.309Z,79.90
2019-06-07T06:21:05.360Z,80.00
2019-06-07T06:25:58.484Z,80.10
2019-06-07T06:36:49.742Z,80.40
2019-06-07T06:42:03.364Z,80.20
2019-06-07T06:47:00.894Z,80.00
2019-06-07T06:52:08.133Z,80.00
2019-06-07T06:57:20.364Z,80.10
2019-06-07T07:02:31.253Z,79.70
2019-06-07T07:07:36.074Z,79.40
2019-06-07T07:13:07.443Z,79.30
2019-06-07T07:18:12.143Z,79.00
2019-06-07T07:23:17.410Z,78.90
2019-06-07T07:28:24.663Z,78.60
2019-06-07T07:39:00.441Z,78.20
2019-06-07T07:44:06.045Z,78.60
2019-06-07T07:49:05.122Z,78.20
2019-06-07T07:54:11.084Z,77.80
2019-06-07T07:59:16.742Z,77.70
2019-06-07T08:04:39.498Z,77.90
2019-06-07T08:09:25.552Z,77.40
2019-06-07T08:14:29.098Z,77.40
2019-06-07T08:19:39.498Z,76.70
2019-06-07T08:24:50.471Z,77.00
2019-06-07T08:30:15.638Z,76.80
2019-06-07T08:35:06.021Z,76.50
2019-06-07T08:40:13.702Z,76.10
2019-06-07T08:45:24.781Z,76.40
2019-06-07T08:51:06.579Z,76.30
2019-06-07T09:17:26.281Z,75.80
2019-06-07T09:22:32.848Z,75.90
2019-06-07T09:27:51.093Z,74.90
2019-06-07T09:33:06.623Z,74.60
2019-06-07T09:38:23.405Z,74.20
2019-06-07T09:44:00.834Z,73.80
2019-06-07T09:49:10.609Z,73.70
2019-06-07T09:53:56.152Z,72.80
2019-06-07T09:59:12.656Z,72.70
2019-06-07T10:04:30.300Z,72.80
2019-06-07T10:14:37.266Z,73.00
2019-06-07T10:19:44.608Z,71.50
2019-06-07T10:24:48.278Z,71.90
2019-06-07T10:29:51.802Z,71.50
2019-06-07T10:34:55.336Z,71.60
2019-06-07T10:39:58.910Z,72.00
2019-06-07T10:45:04.473Z,71.20
2019-06-07T10:50:10.267Z,71.40
2019-06-07T10:55:17.603Z,70.80
2019-06-07T11:12:06.393Z,71.60
2019-06-07T11:17:13.419Z,70.40
2019-06-07T11:22:23.436Z,69.00
2019-06-07T11:27:44.531Z,68.40
2019-06-07T11:32:48.299Z,68.40
2019-06-07T11:37:58.127Z,67.60
2019-06-07T11:43:08.600Z,68.10
2019-06-07T11:48:20.416Z,67.60
2019-06-07T11:53:24.214Z,68.10
2019-06-07T11:58:29.586Z,67.50
2019-06-07T12:03:33.345Z,68.10
2019-06-07T12:08:40.135Z,66.50
2019-06-07T12:13:43.811Z,66.70
2019-06-07T12:18:53.370Z,66.90
2019-06-07T12:23:57.162Z,66.90
2019-06-07T12:29:00.853Z,67.10
2019-06-07T12:34:11.182Z,66.60
2019-06-07T12:39:16.044Z,66.10
2019-06-07T12:44:20.762Z,65.00
2019-06-07T12:49:24.409Z,64.10
2019-06-07T12:54:28.129Z,64.10
2019-06-07T12:59:31.717Z,63.50
2019-06-07T13:04:35.257Z,64.10
2019-06-07T13:09:42.399Z,63.90
2019-06-07T13:14:46.083Z,63.30
2019-06-07T13:19:50.656Z,63.10
2019-06-07T13:24:54.327Z,63.60
2019-06-07T13:29:57.880Z,63.50
2019-06-07T13:35:01.508Z,63.10
2019-06-07T13:40:06.855Z,63.40
2019-06-07T13:45:11.141Z,63.00
2019-06-07T13:50:15.083Z,63.00
2019-06-07T13:55:25.794Z,62.60
2019-06-07T14:00:29.179Z,62.70
2019-06-07T14:05:43.943Z,60.20
2019-06-07T14:10:47.540Z,62.50
2019-06-07T14:21:22.554Z,62.20
2019-06-07T14:26:23.519Z,61.40
2019-06-07T14:31:30.299Z,61.70
2019-06-07T14:36:42.394Z,61.70
2019-06-07T15:35:45.905Z,72.10
2019-06-07T16:14:39.094Z,74.50
2019-06-07T16:20:12.015Z,73.30
2019-06-07T16:25:52.905Z,73.30
2019-06-07T16:58:05.728Z,73.70
2019-06-07T17:03:34.780Z,73.70
2019-06-07T17:14:12.065Z,74.50
2019-06-07T17:30:11.081Z,74.50
2019-06-07T17:35:44.668Z,74.40
2019-06-07T17:40:36.919Z,74.70
2019-06-07T17:45:47.496Z,74.60
2019-06-07T17:50:57.704Z,74.30
2019-06-07T18:02:26.573Z,74.10
2019-06-07T18:08:06.239Z,73.90
2019-06-07T18:13:19.071Z,74.30
2019-06-07T18:18:24.172Z,74.70
2019-06-07T18:23:28.378Z,74.50
2019-06-07T18:28:34.951Z,74.10
2019-06-07T18:33:38.695Z,73.60
2019-06-07T18:38:59.550Z,74.30
2019-06-07T18:44:21.644Z,73.50
2019-06-07T18:49:29.418Z,73.20
2019-06-07T18:54:37.096Z,72.90
2019-06-07T18:59:48.309Z,72.80
2019-06-07T19:04:54.188Z,73.00
2019-06-07T19:10:10.618Z,72.60
2019-06-07T19:15:12.387Z,72.40
2019-06-07T19:20:18.721Z,72.40
2019-06-07T19:25:22.772Z,72.30
2019-06-07T19:30:26.643Z,71.70
2019-06-07T19:35:30.319Z,72.20
2019-06-07T19:40:33.935Z,72.10
2019-06-07T19:45:37.708Z,72.10
2019-06-07T19:50:44.102Z,72.10
2019-06-07T19:55:47.697Z,72.10
2019-06-07T20:00:53.470Z,72.00
2019-06-07T20:06:02.475Z,72.20
2019-06-07T20:11:06.184Z,72.90
2019-06-07T20:16:10.032Z,71.90
2019-06-07T20:27:13.462Z,71.80
2019-06-07T20:32:40.614Z,71.50
2019-06-07T20:37:45.244Z,71.50
2019-06-07T20:42:52.147Z,71.30
2019-06-07T20:47:55.811Z,71.10
2019-06-07T20:53:03.129Z,71.10
2019-06-07T20:58:07.365Z,71.30
2019-06-07T21:03:14.205Z,71.40
2019-06-07T21:08:20.179Z,71.30
2019-06-07T21:13:24.243Z,71.60
2019-06-07T21:18:31.811Z,71.30
2019-06-07T21:24:09.232Z,71.20
2019-06-07T21:29:16.209Z,71.40
2019-06-07T21:34:19.917Z,71.30
2019-06-07T21:39:25.619Z,71.20
2019-06-07T21:44:33.559Z,71.30
2019-06-07T21:49:39.089Z,71.00
2019-06-07T21:54:43.238Z,71.10
2019-06-07T21:59:49.904Z,71.00
2019-06-07T22:04:56.316Z,71.20
2019-06-07T22:10:00.220Z,71.10
2019-06-07T22:15:27.155Z,71.10
2019-06-07T22:20:14.919Z,71.30
2019-06-07T22:25:19.029Z,71.20
2019-06-07T22:30:24.464Z,70.90
2019-06-07T22:35:28.225Z,70.90
2019-06-07T22:40:32.305Z,70.50
2019-06-07T22:45:36.083Z,70.60
2019-06-07T22:50:39.764Z,70.40
2019-06-07T22:55:45.113Z,70.70
2019-06-07T23:00:48.886Z,70.50
2019-06-07T23:05:52.637Z,70.60
2019-06-07T23:10:57.418Z,70.50
2019-06-07T23:16:01.030Z,70.80
2019-06-07T23:21:04.859Z,70.90
2019-06-07T23:26:08.594Z,70.60
2019-06-07T23:31:12.493Z,70.50
2019-06-07T23:36:30.205Z,70.40
2019-06-07T23:47:10.749Z,70.10
2019-06-07T23:52:06.520Z,69.80
2019-06-07T23:57:12.121Z,69.50
